createdAt,value
2023-05-19T00:01:26.159Z,21.9
2023-05-19T00:07:18.694Z,21.9
2023-05-19T00:12:54.657Z,21.8
2023-05-19T00:18:46.601Z,21.8
2023-05-19T00:24:39.253Z,21.7
2023-05-19T00:30:30.632Z,21.6
2023-05-19T00:36:22.707Z,21.6
2023-05-19T00:41:59.407Z,21.5
2023-05-19T00:47:35.584Z,21.4
2023-05-19T00:53:12.276Z,21.4
2023-05-19T00:58:49.458Z,21.4
2023-05-19T01:04:41.982Z,21.3
2023-05-19T01:10:34.325Z,21.3
2023-05-19T01:16:10.089Z,21.3
2023-05-19T01:22:02.539Z,21.3
2023-05-19T01:27:38.185Z,21.2
2023-05-19T01:44:11.832Z,21.1
2023-05-19T01:49:50.524Z,21.1
2023-05-19T01:55:41.532Z,21.1
2023-05-19T02:01:17.832Z,21
2023-05-19T02:07:09.717Z,20.9
2023-05-19T02:12:45.376Z,20.9
2023-05-19T02:18:37.824Z,20.9
2023-05-19T02:24:14.104Z,20.9
2023-05-19T02:30:05.564Z,20.9
2023-05-19T02:35:42.429Z,20.8
2023-05-19T02:41:18.871Z,20.8
2023-05-19T02:46:54.429Z,20.8
2023-05-19T02:52:16.024Z,20.8
2023-05-19T02:57:52.731Z,20.8
2023-05-19T03:03:29.408Z,20.7
2023-05-19T03:09:21.973Z,20.7
2023-05-19T03:14:58.089Z,20.7
2023-05-19T03:20:50.238Z,20.6
2023-05-19T03:26:41.678Z,20.6
2023-05-19T03:32:34.644Z,20.6
2023-05-19T03:38:26.028Z,20.6
2023-05-19T03:44:18.131Z,20.6
2023-05-19T03:50:10.130Z,20.5
2023-05-19T03:55:45.618Z,20.5
2023-05-19T04:01:38.040Z,20.5
2023-05-19T04:07:30.078Z,20.5
2023-05-19T04:13:20.832Z,20.5
2023-05-19T04:19:13.449Z,20.4
2023-05-19T04:25:05.147Z,20.4
2023-05-19T04:30:55.765Z,20.4
2023-05-19T04:36:32.768Z,20.4
2023-05-19T04:42:27.997Z,20.4
2023-05-19T04:48:20.048Z,20.4
2023-05-19T04:54:13.479Z,20.4
2023-05-19T04:59:49.340Z,20.3
2023-05-19T05:05:41.486Z,20.4
2023-05-19T05:11:33.302Z,20.3
2023-05-19T05:17:25.113Z,20.3
2023-05-19T05:23:16.564Z,20.3
2023-05-19T05:28:53.300Z,20.3
2023-05-19T05:34:15.456Z,20.3
2023-05-19T05:40:06.338Z,20.3
2023-05-19T05:45:45.059Z,20.3
2023-05-19T05:51:37.191Z,20.3
2023-05-19T05:57:24.829Z,20.3
2023-05-19T06:03:01.490Z,20.3
2023-05-19T06:08:39.001Z,20.3
2023-05-19T06:14:31.115Z,20.3
2023-05-19T06:19:53.040Z,20.3
2023-05-19T06:25:45.519Z,20.2
2023-05-19T06:31:22.548Z,20.2
2023-05-19T06:37:18.352Z,20.2
2023-05-19T06:42:55.589Z,20.2
2023-05-19T06:48:34.069Z,20.2
2023-05-19T06:54:10.806Z,20.2
2023-05-19T06:59:55.624Z,20.2
2023-05-19T07:05:49.034Z,20.2
2023-05-19T07:11:29.253Z,20.2
2023-05-19T07:16:50.899Z,20.2
2023-05-19T07:22:10.839Z,20.1
2023-05-19T07:27:31.733Z,20.1
2023-05-19T07:33:11.442Z,20.1
2023-05-19T07:38:48.147Z,20.1
2023-05-19T07:43:54.418Z,20.1
2023-05-19T07:49:31.387Z,20.1
2023-05-19T07:54:54.781Z,20.1
2023-05-19T08:00:15.886Z,20.1
2023-05-19T08:05:53.797Z,20.1
2023-05-19T08:11:28.271Z,20.1
2023-05-19T08:17:05.693Z,20.1
2023-05-19T08:22:42.361Z,20.1
2023-05-19T08:28:17.485Z,20.1
2023-05-19T08:33:53.665Z,20.1
2023-05-19T08:39:14.651Z,20.1
2023-05-19T08:44:35.606Z,20.1
2023-05-19T08:50:14.620Z,20.1
2023-05-19T08:56:05.638Z,20.1
2023-05-19T09:01:44.175Z,20.1
2023-05-19T09:07:39.343Z,20.1
2023-05-19T09:13:15.908Z,20.1
2023-05-19T09:18:55.241Z,20.1
2023-05-19T09:24:32.037Z,20.1
2023-05-19T09:30:08.712Z,20.1
2023-05-19T09:35:44.976Z,20.1
2023-05-19T09:41:21.374Z,20.1
2023-05-19T09:47:13.728Z,20.1
2023-05-19T09:52:34.718Z,20.1
2023-05-19T09:58:14.586Z,20.1
2023-05-19T10:04:08.082Z,20.1
2023-05-19T10:09:45.133Z,20.1
2023-05-19T10:15:23.052Z,20.1
2023-05-19T10:20:59.349Z,20.1
2023-05-19T10:26:50.919Z,20.1
2023-05-19T10:32:45.000Z,20
2023-05-19T10:38:21.854Z,20
2023-05-19T10:43:59.175Z,20
2023-05-19T10:49:51.221Z,20
2023-05-19T10:55:43.593Z,20.1
2023-05-19T11:01:21.961Z,20
2023-05-19T11:07:20.463Z,20
2023-05-19T11:13:26.128Z,20
2023-05-19T11:19:18.381Z,20.1
2023-05-19T11:25:13.481Z,20
2023-05-19T11:31:06.440Z,20
2023-05-19T11:36:59.505Z,20
2023-05-19T11:42:51.786Z,20
2023-05-19T11:49:03.019Z,20
2023-05-19T11:54:56.963Z,20
2023-05-19T12:01:04.011Z,20
2023-05-19T12:07:02.944Z,20
2023-05-19T12:12:56.314Z,20
2023-05-19T12:18:49.878Z,20
2023-05-19T12:24:34.722Z,20
2023-05-19T12:30:26.521Z,20
2023-05-19T12:36:20.239Z,20
2023-05-19T12:42:12.745Z,20
2023-05-19T12:48:04.726Z,20
2023-05-19T12:53:59.695Z,20
2023-05-19T13:00:07.696Z,20
2023-05-19T13:06:02.932Z,20
2023-05-19T13:11:55.630Z,20
2023-05-19T13:17:48.142Z,20
2023-05-19T13:23:53.974Z,20
2023-05-19T13:29:15.472Z,20
2023-05-19T13:34:52.552Z,20
2023-05-19T13:40:44.990Z,19.9
2023-05-19T13:46:46.913Z,20
2023-05-19T13:52:40.238Z,20
2023-05-19T13:58:33.487Z,20
2023-05-19T14:04:24.997Z,19.9
2023-05-19T14:10:02.623Z,20
2023-05-19T14:16:22.710Z,20
2023-05-19T14:22:17.405Z,19.9
2023-05-19T14:28:10.273Z,19.9
2023-05-19T14:33:51.987Z,19.9
2023-05-19T14:39:43.985Z,19.9
2023-05-19T14:45:21.092Z,20
2023-05-19T14:51:01.986Z,20
2023-05-19T14:56:39.419Z,19.9
2023-05-19T15:02:27.588Z,19.9
2023-05-19T15:08:09.801Z,19.9
2023-05-19T15:14:02.165Z,19.9
2023-05-19T15:20:13.024Z,19.9
2023-05-19T15:26:04.352Z,19.9
2023-05-19T15:31:41.073Z,19.9
2023-05-19T15:37:17.360Z,19.9
2023-05-19T15:43:08.653Z,19.9
2023-05-19T15:49:00.951Z,19.9
2023-05-19T15:54:52.638Z,20
2023-05-19T16:00:28.600Z,20
2023-05-19T16:06:07.755Z,19.9
2023-05-19T16:11:59.783Z,20
2023-05-19T16:17:51.670Z,19.9
2023-05-19T16:23:29.446Z,19.9
2023-05-19T16:29:05.415Z,19.9
2023-05-19T16:34:41.921Z,19.9
2023-05-19T16:40:18.950Z,19.9
2023-05-19T16:45:56.359Z,19.9
2023-05-19T16:51:34.097Z,19.9
2023-05-19T16:57:26.124Z,19.9
2023-05-19T17:03:04.294Z,19.9
2023-05-19T17:08:12.072Z,20
2023-05-19T17:13:49.482Z,19.9
2023-05-19T17:19:26.274Z,19.9
2023-05-19T17:25:02.291Z,19.9
2023-05-19T17:30:54.077Z,19.9
2023-05-19T17:36:33.792Z,19.9
2023-05-19T17:42:09.578Z,19.9
2023-05-19T17:48:00.869Z,19.9
2023-05-19T17:53:21.637Z,19.9
2023-05-19T17:58:26.828Z,19.9
2023-05-19T18:04:04.083Z,19.9
2023-05-19T18:09:43.588Z,19.9
2023-05-19T18:15:19.633Z,19.9
2023-05-19T18:20:56.929Z,19.9
2023-05-19T18:26:33.105Z,19.9
2023-05-19T18:32:08.788Z,19.9
2023-05-19T18:37:29.822Z,19.9
2023-05-19T18:42:50.250Z,19.9
2023-05-19T18:47:55.444Z,19.9
2023-05-19T18:53:00.791Z,19.9
2023-05-19T18:58:07.163Z,19.9
2023-05-19T19:03:12.186Z,19.9
2023-05-19T19:08:17.421Z,19.9
2023-05-19T19:13:55.922Z,19.9
2023-05-19T19:19:32.023Z,19.9
2023-05-19T19:25:07.707Z,19.9
2023-05-19T19:30:44.509Z,19.9
2023-05-19T19:36:22.669Z,19.9
2023-05-19T19:41:58.883Z,19.9
2023-05-19T19:47:35.926Z,19.9
2023-05-19T19:53:27.225Z,19.8
2023-05-19T19:58:47.444Z,19.9
2023-05-19T20:04:58.862Z,19.9
2023-05-19T20:10:19.054Z,19.8
2023-05-19T20:15:56.306Z,19.9
2023-05-19T20:21:35.316Z,19.9
2023-05-19T20:27:31.656Z,19.9
2023-05-19T20:33:10.050Z,19.9
2023-05-19T20:38:32.727Z,19.9
2023-05-19T20:44:08.163Z,19.9
2023-05-19T20:49:44.840Z,19.9
2023-05-19T20:55:21.335Z,19.9
2023-05-19T21:00:56.659Z,19.9
2023-05-19T21:06:49.462Z,19.9
2023-05-19T21:12:25.912Z,19.9
2023-05-19T21:18:01.507Z,19.9
2023-05-19T21:23:37.922Z,19.9
2023-05-19T21:29:29.740Z,19.9
2023-05-19T21:35:20.800Z,19.8
2023-05-19T21:41:08.357Z,19.9
2023-05-19T21:47:02.471Z,19.8
2023-05-19T21:52:38.320Z,19.8
2023-05-19T21:58:29.767Z,19.8
2023-05-19T22:04:22.684Z,19.8
2023-05-19T22:10:13.584Z,19.8
2023-05-19T22:16:04.240Z,19.8
2023-05-19T22:21:41.076Z,19.8
2023-05-19T22:27:45.303Z,19.8
2023-05-19T22:33:39.736Z,19.8
2023-05-19T22:39:32.834Z,19.8
2023-05-19T22:45:24.766Z,19.8
2023-05-19T22:51:19.263Z,19.8
2023-05-19T22:57:11.779Z,19.8
2023-05-19T23:03:02.613Z,19.8
2023-05-19T23:08:53.497Z,19.8
2023-05-19T23:14:45.645Z,19.8
2023-05-19T23:20:38.005Z,19.8
2023-05-19T23:26:30.200Z,19.8
2023-05-19T23:32:24.047Z,19.8
2023-05-19T23:38:15.211Z,19.8
2023-05-19T23:44:06.308Z,19.8
2023-05-19T23:49:58.250Z,19.8
2023-05-19T23:55:50.014Z,19.8
